UAL4188 KLAS-KSNA
Flight info
| Callsign | UAL4188 |
|---|---|
| Flight time | 0h 38m |
| Altitude | 26000 |
| Route | RADYR2 SLVRR FEYLA DSNEE6 |
| Aircraft | B752/M-SDE2E3FGHIJ3J4J7RWXY/LB1 |
Departure
| Time | 2026-05-07 23:06 |
|---|---|
| Airport | Harry Reid International Airport (KLAS) |
Arrival
| Time | 2026-05-07 23:44 |
|---|---|
| Airport | John Wayne Orange County International Airport (KSNA) |
| Time | Latitude | Longitude | Altitude | Speed | Heading |
|---|---|---|---|---|---|
| 2026-05-07 22:20 | 36.08541 | -115.13367 | 2068 ft | 0 kts | 0° |
| 2026-05-07 22:34 | 36.08540 | -115.13367 | 2070 ft | 1 kts | 0° |
| 2026-05-07 22:34 | 36.08526 | -115.13367 | 2072 ft | 2 kts | 0° |
| 2026-05-07 22:34 | 36.08511 | -115.13366 | 2072 ft | 2 kts | 349° |
| 2026-05-07 22:34 | 36.08496 | -115.13362 | 2071 ft | 2 kts | 343° |
| 2026-05-07 22:35 | 36.08482 | -115.13355 | 2070 ft | 2 kts | 335° |
| 2026-05-07 22:35 | 36.08469 | -115.13347 | 2069 ft | 2 kts | 327° |
| 2026-05-07 22:35 | 36.08457 | -115.13335 | 2068 ft | 2 kts | 333° |
| 2026-05-07 22:35 | 36.08443 | -115.13332 | 2068 ft | 2 kts | 359° |
| 2026-05-07 22:36 | 36.08428 | -115.13334 | 2069 ft | 2 kts | 21° |
| 2026-05-07 22:36 | 36.08415 | -115.13343 | 2069 ft | 2 kts | 43° |
| 2026-05-07 22:36 | 36.08405 | -115.13357 | 2069 ft | 2 kts | 68° |
| 2026-05-07 22:36 | 36.08403 | -115.13375 | 2070 ft | 2 kts | 99° |
| 2026-05-07 22:37 | 36.08409 | -115.13392 | 2070 ft | 2 kts | 130° |
| 2026-05-07 22:37 | 36.08420 | -115.13404 | 2070 ft | 2 kts | 138° |
| 2026-05-07 22:37 | 36.08427 | -115.13412 | 2070 ft | 0 kts | 134° |
| 2026-05-07 22:48 | 36.08417 | -115.13399 | 2070 ft | 3 kts | 135° |
| 2026-05-07 22:49 | 36.08395 | -115.13371 | 2070 ft | 5 kts | 135° |
| 2026-05-07 22:49 | 36.08367 | -115.13337 | 2070 ft | 5 kts | 135° |
| 2026-05-07 22:49 | 36.08337 | -115.13305 | 2070 ft | 5 kts | 153° |
| 2026-05-07 22:49 | 36.08302 | -115.13296 | 2070 ft | 4 kts | 172° |
| 2026-05-07 22:50 | 36.08268 | -115.13294 | 2071 ft | 4 kts | 178° |
| 2026-05-07 22:50 | 36.08240 | -115.13293 | 2071 ft | 0 kts | 180° |
| 2026-05-07 22:52 | 36.08237 | -115.13293 | 2072 ft | 1 kts | 180° |
| 2026-05-07 22:52 | 36.08220 | -115.13293 | 2072 ft | 3 kts | 180° |
| 2026-05-07 22:53 | 36.08165 | -115.13293 | 2073 ft | 9 kts | 180° |
| 2026-05-07 22:53 | 36.08102 | -115.13293 | 2074 ft | 7 kts | 180° |
| 2026-05-07 22:53 | 36.08055 | -115.13293 | 2075 ft | 6 kts | 180° |
| 2026-05-07 22:53 | 36.07996 | -115.13293 | 2076 ft | 10 kts | 180° |
| 2026-05-07 22:54 | 36.07909 | -115.13291 | 2078 ft | 13 kts | 179° |
| 2026-05-07 22:54 | 36.07838 | -115.13260 | 2079 ft | 10 kts | 121° |
| 2026-05-07 22:54 | 36.07827 | -115.13128 | 2076 ft | 21 kts | 90° |
| 2026-05-07 22:54 | 36.07829 | -115.12892 | 2069 ft | 30 kts | 89° |
| 2026-05-07 22:55 | 36.07829 | -115.12625 | 2064 ft | 31 kts | 90° |
| 2026-05-07 22:55 | 36.07829 | -115.12392 | 2060 ft | 14 kts | 90° |
| 2026-05-07 22:55 | 36.07823 | -115.12277 | 2058 ft | 6 kts | 112° |
| 2026-05-07 22:55 | 36.07818 | -115.12263 | 2057 ft | 0 kts | 119° |
| 2026-05-07 22:56 | 36.07817 | -115.12263 | 2057 ft | 0 kts | 119° |
| 2026-05-07 22:56 | 36.07809 | -115.12246 | 2057 ft | 4 kts | 122° |
| 2026-05-07 22:56 | 36.07789 | -115.12212 | 2057 ft | 5 kts | 128° |
| 2026-05-07 22:56 | 36.07778 | -115.12196 | 2057 ft | 0 kts | 128° |
| 2026-05-07 22:58 | 36.07772 | -115.12186 | 2057 ft | 3 kts | 129° |
| 2026-05-07 22:58 | 36.07754 | -115.12158 | 2057 ft | 4 kts | 129° |
| 2026-05-07 22:59 | 36.07742 | -115.12142 | 2057 ft | 0 kts | 140° |
| 2026-05-07 23:03 | 36.07739 | -115.12140 | 2057 ft | 1 kts | 145° |
| 2026-05-07 23:03 | 36.07732 | -115.12135 | 2057 ft | 2 kts | 149° |
| 2026-05-07 23:04 | 36.07726 | -115.12130 | 2057 ft | 0 kts | 150° |
| 2026-05-07 23:04 | 36.07718 | -115.12128 | 2057 ft | 3 kts | 172° |
| 2026-05-07 23:04 | 36.07656 | -115.12145 | 2059 ft | 10 kts | 232° |
| 2026-05-07 23:04 | 36.07645 | -115.12225 | 2060 ft | 10 kts | 270° |
| 2026-05-07 23:05 | 36.07644 | -115.12592 | 2067 ft | 83 kts | 270° |
| 2026-05-07 23:05 | 36.07644 | -115.13646 | 2094 ft | 158 kts | 270° |
| 2026-05-07 23:05 | 36.07646 | -115.15192 | 2318 ft | 201 kts | 271° |
| 2026-05-07 23:05 | 36.07657 | -115.16859 | 2502 ft | 185 kts | 272° |
| 2026-05-07 23:06 | 36.07665 | -115.18349 | 2616 ft | 167 kts | 272° |
| 2026-05-07 23:06 | 36.07657 | -115.19945 | 2943 ft | 208 kts | 266° |
| 2026-05-07 23:06 | 36.07420 | -115.21923 | 3170 ft | 260 kts | 261° |
| 2026-05-07 23:06 | 36.06964 | -115.24270 | 3403 ft | 292 kts | 246° |
| 2026-05-07 23:07 | 36.05822 | -115.26221 | 3609 ft | 282 kts | 220° |
| 2026-05-07 23:07 | 36.04043 | -115.27325 | 4216 ft | 287 kts | 198° |
| 2026-05-07 23:07 | 36.02207 | -115.28073 | 5279 ft | 282 kts | 201° |
| 2026-05-07 23:07 | 36.00369 | -115.28896 | 6096 ft | 286 kts | 201° |
| 2026-05-07 23:08 | 35.98475 | -115.29575 | 6944 ft | 289 kts | 193° |
| 2026-05-07 23:08 | 35.96479 | -115.30057 | 7761 ft | 293 kts | 193° |
| 2026-05-07 23:08 | 35.94478 | -115.30554 | 8538 ft | 298 kts | 193° |
| 2026-05-07 23:08 | 35.92454 | -115.31054 | 9366 ft | 301 kts | 193° |
| 2026-05-07 23:09 | 35.90402 | -115.31561 | 10160 ft | 306 kts | 193° |
| 2026-05-07 23:09 | 35.88251 | -115.32090 | 10696 ft | 322 kts | 193° |
| 2026-05-07 23:09 | 35.85997 | -115.32645 | 11060 ft | 342 kts | 193° |
| 2026-05-07 23:09 | 35.83604 | -115.33232 | 11536 ft | 357 kts | 192° |
| 2026-05-07 23:10 | 35.81184 | -115.33825 | 12388 ft | 359 kts | 192° |
| 2026-05-07 23:10 | 35.78704 | -115.34432 | 13087 ft | 366 kts | 192° |
| 2026-05-07 23:10 | 35.76197 | -115.35046 | 13926 ft | 368 kts | 192° |
| 2026-05-07 23:10 | 35.73652 | -115.35669 | 14586 ft | 376 kts | 192° |
| 2026-05-07 23:11 | 35.71114 | -115.36290 | 15374 ft | 379 kts | 192° |
| 2026-05-07 23:11 | 35.68492 | -115.36930 | 16062 ft | 386 kts | 192° |
| 2026-05-07 23:11 | 35.65864 | -115.37573 | 16811 ft | 390 kts | 192° |
| 2026-05-07 23:11 | 35.63196 | -115.38326 | 17462 ft | 395 kts | 199° |
| 2026-05-07 23:12 | 35.60738 | -115.39778 | 18173 ft | 397 kts | 215° |
| 2026-05-07 23:12 | 35.58628 | -115.41968 | 18769 ft | 401 kts | 229° |
| 2026-05-07 23:12 | 35.56701 | -115.44537 | 19086 ft | 411 kts | 229° |
| 2026-05-07 23:12 | 35.54775 | -115.47102 | 19069 ft | 408 kts | 229° |
| 2026-05-07 23:13 | 35.52874 | -115.49646 | 19068 ft | 400 kts | 230° |
| 2026-05-07 23:13 | 35.51008 | -115.52155 | 19070 ft | 401 kts | 230° |
| 2026-05-07 23:13 | 35.49136 | -115.54675 | 19065 ft | 401 kts | 230° |
| 2026-05-07 23:13 | 35.47264 | -115.57195 | 19062 ft | 401 kts | 230° |
| 2026-05-07 23:14 | 35.45388 | -115.59721 | 19064 ft | 401 kts | 230° |
| 2026-05-07 23:14 | 35.43489 | -115.62276 | 19065 ft | 401 kts | 230° |
| 2026-05-07 23:14 | 35.41630 | -115.64775 | 19064 ft | 401 kts | 230° |
| 2026-05-07 23:14 | 35.39738 | -115.67317 | 19064 ft | 401 kts | 229° |
| 2026-05-07 23:15 | 35.37846 | -115.69859 | 19062 ft | 403 kts | 229° |
| 2026-05-07 23:15 | 35.35971 | -115.72374 | 19060 ft | 402 kts | 229° |
| 2026-05-07 23:15 | 35.34068 | -115.74925 | 19057 ft | 403 kts | 229° |
| 2026-05-07 23:15 | 35.32180 | -115.77448 | 19050 ft | 403 kts | 229° |
| 2026-05-07 23:16 | 35.30309 | -115.79945 | 19043 ft | 402 kts | 229° |
| 2026-05-07 23:16 | 35.28413 | -115.82475 | 19027 ft | 401 kts | 229° |
| 2026-05-07 23:16 | 35.26517 | -115.85003 | 19018 ft | 401 kts | 229° |
| 2026-05-07 23:16 | 35.24643 | -115.87500 | 18998 ft | 402 kts | 229° |
| 2026-05-07 23:17 | 35.22740 | -115.90031 | 18990 ft | 402 kts | 229° |
| 2026-05-07 23:17 | 35.20822 | -115.92471 | 18981 ft | 403 kts | 227° |
| 2026-05-07 23:17 | 35.18868 | -115.94936 | 18974 ft | 404 kts | 227° |
| 2026-05-07 23:17 | 35.16905 | -115.97412 | 18964 ft | 403 kts | 227° |
| 2026-05-07 23:18 | 35.14968 | -115.99854 | 18960 ft | 403 kts | 227° |
| 2026-05-07 23:18 | 35.13008 | -116.02325 | 18971 ft | 403 kts | 227° |
| 2026-05-07 23:18 | 35.11052 | -116.04788 | 18967 ft | 403 kts | 227° |
| 2026-05-07 23:18 | 35.09111 | -116.07232 | 18967 ft | 402 kts | 227° |
| 2026-05-07 23:19 | 35.07162 | -116.09682 | 18977 ft | 403 kts | 227° |
| 2026-05-07 23:19 | 35.05225 | -116.12117 | 18970 ft | 402 kts | 227° |
| 2026-05-07 23:19 | 35.03277 | -116.14564 | 18977 ft | 402 kts | 227° |
| 2026-05-07 23:19 | 35.01325 | -116.17013 | 18971 ft | 403 kts | 227° |
| 2026-05-07 23:20 | 34.99370 | -116.19465 | 18963 ft | 403 kts | 227° |
| 2026-05-07 23:20 | 34.97413 | -116.21918 | 18962 ft | 403 kts | 227° |
| 2026-05-07 23:20 | 34.95475 | -116.24345 | 18965 ft | 404 kts | 227° |
| 2026-05-07 23:20 | 34.93516 | -116.26795 | 18964 ft | 404 kts | 227° |
| 2026-05-07 23:21 | 34.91553 | -116.29250 | 18964 ft | 403 kts | 227° |
| 2026-05-07 23:21 | 34.89587 | -116.31707 | 18974 ft | 403 kts | 227° |
| 2026-05-07 23:21 | 34.87642 | -116.34150 | 18982 ft | 404 kts | 227° |
| 2026-05-07 23:21 | 34.85687 | -116.36648 | 18979 ft | 404 kts | 228° |
| 2026-05-07 23:22 | 34.83766 | -116.39098 | 18989 ft | 403 kts | 227° |
| 2026-05-07 23:22 | 34.81813 | -116.41586 | 18993 ft | 403 kts | 227° |
| 2026-05-07 23:22 | 34.79901 | -116.44021 | 18990 ft | 403 kts | 227° |
| 2026-05-07 23:22 | 34.77945 | -116.46509 | 18991 ft | 403 kts | 228° |
| 2026-05-07 23:23 | 34.76008 | -116.48972 | 19005 ft | 403 kts | 227° |
| 2026-05-07 23:23 | 34.74086 | -116.51414 | 19025 ft | 404 kts | 227° |
| 2026-05-07 23:23 | 34.72133 | -116.53893 | 19031 ft | 403 kts | 227° |
| 2026-05-07 23:23 | 34.70216 | -116.56325 | 19042 ft | 403 kts | 227° |
| 2026-05-07 23:24 | 34.68206 | -116.58713 | 19065 ft | 404 kts | 223° |
| 2026-05-07 23:24 | 34.66100 | -116.60966 | 19066 ft | 405 kts | 223° |
| 2026-05-07 23:24 | 34.64010 | -116.63226 | 19073 ft | 403 kts | 223° |
| 2026-05-07 23:24 | 34.61914 | -116.65491 | 19066 ft | 404 kts | 222° |
| 2026-05-07 23:25 | 34.59800 | -116.67777 | 19066 ft | 404 kts | 222° |
| 2026-05-07 23:25 | 34.57727 | -116.70018 | 19071 ft | 404 kts | 222° |
| 2026-05-07 23:25 | 34.55616 | -116.72298 | 19063 ft | 405 kts | 222° |
| 2026-05-07 23:25 | 34.53524 | -116.74556 | 19064 ft | 405 kts | 222° |
| 2026-05-07 23:26 | 34.51421 | -116.76824 | 19063 ft | 405 kts | 222° |
| 2026-05-07 23:26 | 34.49314 | -116.79096 | 19004 ft | 401 kts | 222° |
| 2026-05-07 23:26 | 34.47237 | -116.81335 | 18609 ft | 393 kts | 222° |
| 2026-05-07 23:26 | 34.45238 | -116.83486 | 18242 ft | 381 kts | 222° |
| 2026-05-07 23:27 | 34.41335 | -116.87685 | 17544 ft | 376 kts | 222° |
| 2026-05-07 23:27 | 34.39378 | -116.89789 | 17155 ft | 378 kts | 222° |
| 2026-05-07 23:27 | 34.37421 | -116.91889 | 16743 ft | 374 kts | 222° |
| 2026-05-07 23:28 | 34.35505 | -116.93946 | 16311 ft | 370 kts | 222° |
| 2026-05-07 23:28 | 34.33588 | -116.96002 | 15862 ft | 367 kts | 222° |
| 2026-05-07 23:28 | 34.31693 | -116.98033 | 15397 ft | 364 kts | 222° |
| 2026-05-07 23:28 | 34.29800 | -117.00061 | 14924 ft | 363 kts | 222° |
| 2026-05-07 23:29 | 34.27921 | -117.02071 | 14444 ft | 360 kts | 222° |
| 2026-05-07 23:29 | 34.25915 | -117.03866 | 13997 ft | 353 kts | 211° |
| 2026-05-07 23:29 | 34.23863 | -117.05350 | 13825 ft | 346 kts | 211° |
| 2026-05-07 23:29 | 34.21785 | -117.06873 | 13629 ft | 354 kts | 211° |
| 2026-05-07 23:30 | 34.19649 | -117.08423 | 13385 ft | 356 kts | 211° |
| 2026-05-07 23:30 | 34.17542 | -117.09934 | 13159 ft | 352 kts | 208° |
| 2026-05-07 23:30 | 34.15341 | -117.11189 | 12954 ft | 347 kts | 203° |
| 2026-05-07 23:30 | 34.13136 | -117.12373 | 12804 ft | 348 kts | 204° |
| 2026-05-07 23:31 | 34.10908 | -117.13575 | 12640 ft | 349 kts | 204° |
| 2026-05-07 23:31 | 34.08699 | -117.14761 | 12470 ft | 347 kts | 204° |
| 2026-05-07 23:31 | 34.06479 | -117.15951 | 12322 ft | 348 kts | 204° |
| 2026-05-07 23:31 | 34.04272 | -117.17133 | 12101 ft | 347 kts | 204° |
| 2026-05-07 23:32 | 34.02113 | -117.18289 | 11985 ft | 325 kts | 204° |
| 2026-05-07 23:32 | 34.00196 | -117.19507 | 12006 ft | 311 kts | 220° |
| 2026-05-07 23:32 | 33.98599 | -117.21368 | 11788 ft | 329 kts | 229° |
| 2026-05-07 23:32 | 33.97062 | -117.23396 | 11235 ft | 330 kts | 229° |
| 2026-05-07 23:33 | 33.95556 | -117.25422 | 11189 ft | 314 kts | 230° |
| 2026-05-07 23:33 | 33.94144 | -117.27352 | 11144 ft | 300 kts | 230° |
| 2026-05-07 23:33 | 33.92781 | -117.29243 | 10778 ft | 299 kts | 231° |
| 2026-05-07 23:33 | 33.91452 | -117.31116 | 10483 ft | 295 kts | 231° |
| 2026-05-07 23:34 | 33.90124 | -117.32987 | 10130 ft | 294 kts | 232° |
| 2026-05-07 23:34 | 33.88794 | -117.34865 | 9823 ft | 291 kts | 232° |
| 2026-05-07 23:34 | 33.87492 | -117.36704 | 9469 ft | 289 kts | 232° |
| 2026-05-07 23:34 | 33.86180 | -117.38555 | 9102 ft | 288 kts | 232° |
| 2026-05-07 23:35 | 33.84908 | -117.40352 | 8804 ft | 285 kts | 232° |
| 2026-05-07 23:35 | 33.83642 | -117.42136 | 8691 ft | 273 kts | 232° |
| 2026-05-07 23:35 | 33.82440 | -117.43834 | 8626 ft | 261 kts | 233° |
| 2026-05-07 23:35 | 33.81563 | -117.45687 | 8427 ft | 250 kts | 252° |
| 2026-05-07 23:36 | 33.80949 | -117.47598 | 8431 ft | 234 kts | 251° |
| 2026-05-07 23:36 | 33.80376 | -117.49335 | 8447 ft | 217 kts | 252° |
| 2026-05-07 23:36 | 33.79842 | -117.51013 | 8090 ft | 216 kts | 255° |
| 2026-05-07 23:36 | 33.79782 | -117.52777 | 7640 ft | 211 kts | 288° |
| 2026-05-07 23:37 | 33.80281 | -117.54361 | 7490 ft | 197 kts | 293° |
| 2026-05-07 23:37 | 33.80784 | -117.55919 | 7304 ft | 202 kts | 293° |
| 2026-05-07 23:37 | 33.81311 | -117.57508 | 7088 ft | 208 kts | 294° |
| 2026-05-07 23:37 | 33.81850 | -117.59106 | 6868 ft | 204 kts | 293° |
| 2026-05-07 23:38 | 33.82392 | -117.60701 | 6549 ft | 204 kts | 293° |
| 2026-05-07 23:38 | 33.82877 | -117.62267 | 6253 ft | 204 kts | 283° |
| 2026-05-07 23:38 | 33.83029 | -117.63955 | 5902 ft | 200 kts | 276° |
| 2026-05-07 23:38 | 33.83145 | -117.65601 | 5485 ft | 201 kts | 276° |
| 2026-05-07 23:39 | 33.83263 | -117.67244 | 5150 ft | 196 kts | 276° |
| 2026-05-07 23:39 | 33.83297 | -117.68897 | 4720 ft | 197 kts | 271° |
| 2026-05-07 23:39 | 33.83295 | -117.70518 | 4410 ft | 193 kts | 271° |
| 2026-05-07 23:39 | 33.83297 | -117.72137 | 4105 ft | 194 kts | 271° |
| 2026-05-07 23:40 | 33.83297 | -117.73753 | 3832 ft | 196 kts | 271° |
| 2026-05-07 23:40 | 33.83284 | -117.75387 | 3530 ft | 197 kts | 266° |
| 2026-05-07 23:40 | 33.82776 | -117.76887 | 3224 ft | 199 kts | 230° |
| 2026-05-07 23:40 | 33.81639 | -117.77842 | 2971 ft | 201 kts | 211° |
| 2026-05-07 23:41 | 33.80414 | -117.78673 | 2711 ft | 199 kts | 213° |
| 2026-05-07 23:41 | 33.79226 | -117.79474 | 2445 ft | 195 kts | 211° |
| 2026-05-07 23:41 | 33.78045 | -117.80243 | 2194 ft | 190 kts | 211° |
| 2026-05-07 23:41 | 33.76891 | -117.80984 | 1948 ft | 186 kts | 211° |
| 2026-05-07 23:42 | 33.75765 | -117.81703 | 1703 ft | 181 kts | 211° |
| 2026-05-07 23:42 | 33.74658 | -117.82406 | 1459 ft | 177 kts | 210° |
| 2026-05-07 23:42 | 33.73603 | -117.83073 | 1266 ft | 162 kts | 210° |
| 2026-05-07 23:42 | 33.72659 | -117.83669 | 1051 ft | 144 kts | 210° |
| 2026-05-07 23:43 | 33.71820 | -117.84199 | 828 ft | 128 kts | 210° |
| 2026-05-07 23:43 | 33.71048 | -117.84689 | 683 ft | 128 kts | 209° |
| 2026-05-07 23:43 | 33.70238 | -117.85202 | 530 ft | 134 kts | 208° |
| 2026-05-07 23:43 | 33.69410 | -117.85725 | 353 ft | 134 kts | 208° |
| 2026-05-07 23:44 | 33.68579 | -117.86250 | 171 ft | 133 kts | 208° |
| 2026-05-07 23:44 | 33.67766 | -117.86760 | 58 ft | 127 kts | 207° |
| 2026-05-07 23:44 | 33.67167 | -117.87141 | 60 ft | 48 kts | 207° |
| 2026-05-07 23:44 | 33.67036 | -117.87219 | 63 ft | 12 kts | 195° |
| 2026-05-07 23:45 | 33.66957 | -117.87209 | 63 ft | 11 kts | 153° |
| 2026-05-07 23:45 | 33.66907 | -117.87142 | 63 ft | 10 kts | 108° |
| 2026-05-07 23:45 | 33.66933 | -117.87076 | 62 ft | 9 kts | 40° |
| 2026-05-07 23:45 | 33.66990 | -117.87016 | 60 ft | 11 kts | 41° |
| 2026-05-07 23:46 | 33.67054 | -117.86948 | 60 ft | 12 kts | 41° |